createdAt,value
2023-01-05T00:00:03.085Z,86
2023-01-05T00:03:03.103Z,86
2023-01-05T00:06:03.001Z,86
2023-01-05T00:09:03.098Z,86
2023-01-05T00:12:03.099Z,85.4
2023-01-05T00:15:03.091Z,85.4
2023-01-05T00:18:03.040Z,85.4
2023-01-05T00:21:03.025Z,86.8
2023-01-05T00:24:03.128Z,86.8
2023-01-05T00:27:03.089Z,86.8
2023-01-05T00:30:03.405Z,86.8
2023-01-05T00:33:02.992Z,86.8
2023-01-05T00:36:03.017Z,86.8
2023-01-05T00:39:03.011Z,87.7
2023-01-05T00:42:02.948Z,87.7
2023-01-05T00:45:03.040Z,87.7
2023-01-05T00:48:03.321Z,87.7
2023-01-05T00:51:03.058Z,87.7
2023-01-05T00:54:02.990Z,87.7
2023-01-05T00:57:03.079Z,87.7
2023-01-05T01:00:03.122Z,87.7
2023-01-05T01:03:03.202Z,87.7
2023-01-05T01:06:03.002Z,87.7
2023-01-05T01:09:03.089Z,87.7
2023-01-05T01:12:03.006Z,87.7
2023-01-05T01:15:03.053Z,87.7
2023-01-05T01:18:03.163Z,87.7
2023-01-05T01:21:03.040Z,87.1
2023-01-05T01:24:03.021Z,87.1
2023-01-05T01:27:03.045Z,87.1
2023-01-05T01:30:03.127Z,87.1
2023-01-05T01:33:03.114Z,87.1
2023-01-05T01:36:03.066Z,86.5
2023-01-05T01:39:03.076Z,86.5
2023-01-05T01:42:03.041Z,86.3
2023-01-05T01:45:03.147Z,86.3
2023-01-05T01:48:03.077Z,86.3
2023-01-05T01:51:10.483Z,86.3
2023-01-05T01:54:03.111Z,86.3
2023-01-05T01:57:03.057Z,86.3
2023-01-05T02:00:03.079Z,86.3
2023-01-05T02:03:03.067Z,86.3
2023-01-05T02:06:03.068Z,86.3
2023-01-05T02:09:03.201Z,86.3
2023-01-05T02:12:03.012Z,86.3
2023-01-05T02:15:03.013Z,86.3
2023-01-05T02:18:03.000Z,85.9
2023-01-05T02:21:03.058Z,85.9
2023-01-05T02:24:03.095Z,85.9
2023-01-05T02:27:03.067Z,85.9
2023-01-05T02:30:03.057Z,85.8
2023-01-05T02:33:03.033Z,85.8
2023-01-05T02:36:03.051Z,85.8
2023-01-05T02:39:03.040Z,85.1
2023-01-05T02:42:03.080Z,85.1
2023-01-05T02:45:03.110Z,85.1
2023-01-05T02:48:03.100Z,85.1
2023-01-05T02:51:03.115Z,84.4
2023-01-05T02:54:03.089Z,84.4
2023-01-05T02:57:03.035Z,84.4
2023-01-05T03:00:03.100Z,84.4
2023-01-05T03:03:03.523Z,84.4
2023-01-05T03:06:03.084Z,84.4
2023-01-05T03:09:03.049Z,84.4
2023-01-05T03:12:03.032Z,84.4
2023-01-05T03:15:03.106Z,84.4
2023-01-05T03:18:03.072Z,84.4
2023-01-05T03:21:03.039Z,84.4
2023-01-05T03:24:03.119Z,84.4
2023-01-05T03:27:03.063Z,84.4
2023-01-05T03:30:03.139Z,84.4
2023-01-05T03:33:03.002Z,84.5
2023-01-05T03:36:03.112Z,84.5
2023-01-05T03:39:03.012Z,84.5
2023-01-05T03:42:03.187Z,84.5
2023-01-05T03:45:03.047Z,84.5
2023-01-05T03:48:03.056Z,86
2023-01-05T03:51:03.081Z,86
2023-01-05T03:54:03.062Z,86
2023-01-05T03:57:03.026Z,86
2023-01-05T04:00:03.051Z,86
2023-01-05T04:03:03.644Z,86
2023-01-05T04:06:02.993Z,86
2023-01-05T04:09:03.029Z,86
2023-01-05T04:12:03.081Z,86
2023-01-05T04:15:02.987Z,86
2023-01-05T04:18:03.013Z,86
2023-01-05T04:21:03.013Z,86
2023-01-05T04:24:03.067Z,86
2023-01-05T04:27:03.045Z,86.7
2023-01-05T04:30:03.092Z,86.7
2023-01-05T04:33:03.034Z,86.7
2023-01-05T04:36:03.034Z,86.7
2023-01-05T04:39:03.054Z,86.7
2023-01-05T04:42:03.067Z,86.7
2023-01-05T04:45:03.050Z,86.7
2023-01-05T04:48:03.092Z,86.7
2023-01-05T04:51:03.104Z,86.7
2023-01-05T04:54:03.137Z,86.7
2023-01-05T04:57:03.111Z,86.7
2023-01-05T05:00:03.263Z,86.7
2023-01-05T05:03:03.447Z,86.7
2023-01-05T05:06:03.116Z,85.6
2023-01-05T05:09:03.032Z,85.6
2023-01-05T05:12:03.106Z,85.6
2023-01-05T05:15:03.090Z,85.6
2023-01-05T05:18:11.561Z,85.7
2023-01-05T05:21:03.002Z,85.7
2023-01-05T05:24:03.003Z,85.7
2023-01-05T05:27:03.030Z,85.7
2023-01-05T05:30:03.139Z,86.3
2023-01-05T05:33:03.011Z,86.3
2023-01-05T05:36:03.109Z,86.3
2023-01-05T05:39:03.060Z,86.3
2023-01-05T05:42:03.024Z,86.3
2023-01-05T05:45:03.035Z,86.3
2023-01-05T05:48:03.191Z,86.3
2023-01-05T05:51:03.110Z,86.3
2023-01-05T05:54:03.045Z,86.8
2023-01-05T05:57:03.120Z,86.8
2023-01-05T06:00:03.203Z,86.8
2023-01-05T06:03:03.415Z,86.5
2023-01-05T06:06:03.091Z,86.5
2023-01-05T06:09:03.032Z,86.5
2023-01-05T06:12:03.234Z,86.5
2023-01-05T06:15:03.046Z,87
2023-01-05T06:18:03.021Z,87
2023-01-05T06:21:04.478Z,87
2023-01-05T06:24:03.102Z,87
2023-01-05T06:27:03.150Z,87
2023-01-05T06:30:03.186Z,87
2023-01-05T06:33:03.065Z,87
2023-01-05T06:36:03.029Z,86.7
2023-01-05T06:39:03.160Z,86.7
2023-01-05T06:42:03.040Z,86.7
2023-01-05T06:45:03.040Z,86.7
2023-01-05T06:48:03.095Z,86.7
2023-01-05T06:51:03.052Z,86.7
2023-01-05T06:54:03.030Z,86.7
2023-01-05T06:57:03.053Z,86.7
2023-01-05T07:00:03.161Z,86.7
2023-01-05T07:03:03.128Z,86.7
2023-01-05T07:06:03.031Z,86.7
2023-01-05T07:09:03.034Z,86.7
2023-01-05T07:12:02.998Z,86.6
2023-01-05T07:15:03.002Z,86.6
2023-01-05T07:18:03.052Z,86.6
2023-01-05T07:21:03.015Z,86.6
2023-01-05T07:24:02.969Z,86.2
2023-01-05T07:27:12.021Z,86.2
2023-01-05T07:30:03.066Z,86.2
2023-01-05T07:33:03.083Z,86.2
2023-01-05T07:36:03.075Z,85.8
2023-01-05T07:39:03.092Z,85.8
2023-01-05T07:42:03.095Z,85.8
2023-01-05T07:45:03.131Z,85.8
2023-01-05T07:48:03.065Z,85.8
2023-01-05T07:51:03.072Z,86
2023-01-05T07:54:03.098Z,86
2023-01-05T07:57:03.105Z,86
2023-01-05T08:00:03.260Z,86
2023-01-05T08:03:03.062Z,86
2023-01-05T08:06:03.075Z,86
2023-01-05T08:09:03.093Z,86.3
2023-01-05T08:12:03.108Z,86.3
2023-01-05T08:15:03.125Z,86.4
2023-01-05T08:18:03.043Z,86.4
2023-01-05T08:21:03.154Z,86.4
2023-01-05T08:24:03.061Z,86.4
2023-01-05T08:27:03.341Z,86.4
2023-01-05T08:30:03.147Z,87
2023-01-05T08:33:03.070Z,87
2023-01-05T08:36:03.104Z,87
2023-01-05T08:39:03.055Z,87
2023-01-05T08:42:05.392Z,87
2023-01-05T08:45:03.091Z,87
2023-01-05T08:48:03.070Z,87
2023-01-05T08:51:03.057Z,87
2023-01-05T08:54:03.037Z,87
2023-01-05T08:57:03.019Z,87
2023-01-05T09:00:03.247Z,86.6
2023-01-05T09:03:03.526Z,86
2023-01-05T09:06:03.043Z,86
2023-01-05T09:09:03.061Z,86
2023-01-05T09:12:03.101Z,86
2023-01-05T09:15:03.040Z,86
2023-01-05T09:18:03.193Z,86
2023-01-05T09:21:03.037Z,86
2023-01-05T09:24:03.027Z,85.7
2023-01-05T09:27:03.037Z,85.7
2023-01-05T09:30:03.126Z,85.7
2023-01-05T09:33:03.119Z,85.7
2023-01-05T09:36:03.088Z,85.7
2023-01-05T09:39:03.062Z,85.7
2023-01-05T09:42:03.089Z,85.7
2023-01-05T09:45:03.129Z,86.5
2023-01-05T09:48:03.153Z,86.5
2023-01-05T09:51:03.029Z,86.5
2023-01-05T09:54:03.076Z,86.2
2023-01-05T09:57:13.204Z,85.9
2023-01-05T10:00:03.168Z,85.9
2023-01-05T10:03:03.206Z,85.9
2023-01-05T10:06:03.100Z,85.9
2023-01-05T10:09:03.116Z,85.9
2023-01-05T10:12:03.090Z,85.9
2023-01-05T10:15:03.086Z,85.9
2023-01-05T10:18:03.045Z,85.9
2023-01-05T10:21:03.060Z,85.9
2023-01-05T10:24:03.088Z,85.9
2023-01-05T10:27:28.756Z,85.9
2023-01-05T10:30:03.169Z,84.9
2023-01-05T10:33:40.506Z,84.9
2023-01-05T10:36:13.102Z,84.9
2023-01-05T10:39:03.136Z,84.9
2023-01-05T10:42:03.128Z,84.9
2023-01-05T10:45:03.107Z,85.4
2023-01-05T10:48:03.088Z,85.4
2023-01-05T10:51:03.136Z,85.7
2023-01-05T10:54:03.038Z,85.7
2023-01-05T10:57:03.104Z,85.7
2023-01-05T11:00:03.412Z,85.7
2023-01-05T11:03:03.137Z,85.7
2023-01-05T11:06:03.073Z,85.7
2023-01-05T11:09:03.132Z,85.7
2023-01-05T11:12:03.082Z,85.7
2023-01-05T11:15:03.117Z,85.7
2023-01-05T11:18:03.072Z,85.8
2023-01-05T11:21:03.043Z,85.8
2023-01-05T11:24:03.012Z,85.8
2023-01-05T11:27:03.036Z,85.8
2023-01-05T11:30:03.305Z,85.8
2023-01-05T11:33:03.107Z,85.8
2023-01-05T11:36:03.048Z,85.8
2023-01-05T11:39:03.172Z,85.8
2023-01-05T11:42:03.090Z,87.8
2023-01-05T11:45:03.130Z,87.8
2023-01-05T11:48:03.041Z,87.6
2023-01-05T11:51:03.105Z,87.6
2023-01-05T11:54:03.023Z,87.6
2023-01-05T11:57:03.090Z,87.6
2023-01-05T12:00:03.124Z,87.6
2023-01-05T12:03:03.312Z,87.6
2023-01-05T12:06:03.059Z,87.6
2023-01-05T12:09:03.301Z,87.6
2023-01-05T12:12:03.090Z,87.6
2023-01-05T12:15:03.066Z,87.9
2023-01-05T12:18:03.085Z,87.9
2023-01-05T12:21:03.071Z,87.9
2023-01-05T12:24:03.060Z,87.9
2023-01-05T12:27:03.060Z,88.3
2023-01-05T12:36:03.143Z,88.3
2023-01-05T12:39:03.201Z,88.3
2023-01-05T12:42:07.481Z,87.6
2023-01-05T12:45:03.062Z,87.3
2023-01-05T12:48:03.091Z,87.3
2023-01-05T12:51:03.066Z,87.3
2023-01-05T12:54:03.979Z,87.3
2023-01-05T12:57:03.047Z,87.3
2023-01-05T13:00:03.182Z,87.3
2023-01-05T13:03:03.291Z,87.3
2023-01-05T13:06:03.036Z,88
2023-01-05T13:09:03.132Z,88
2023-01-05T13:12:03.054Z,88
2023-01-05T13:15:03.087Z,88
2023-01-05T13:18:03.064Z,88
2023-01-05T13:21:03.060Z,88
2023-01-05T13:24:03.125Z,88
2023-01-05T13:27:03.120Z,88
2023-01-05T13:30:03.094Z,88
2023-01-05T13:33:03.048Z,88
2023-01-05T13:36:03.038Z,88
2023-01-05T13:39:03.102Z,90.6
2023-01-05T13:42:03.072Z,90.6
2023-01-05T13:45:03.043Z,90.6
2023-01-05T13:48:07.402Z,90.6
2023-01-05T13:51:03.052Z,90.6
2023-01-05T13:54:03.099Z,90.6
2023-01-05T13:57:03.059Z,90.7
2023-01-05T14:00:12.655Z,90.7
2023-01-05T14:03:03.077Z,90.7
2023-01-05T14:06:03.095Z,90.7
2023-01-05T14:12:03.282Z,90.8
2023-01-05T14:15:03.553Z,90.8
2023-01-05T14:18:03.093Z,90.8
2023-01-05T14:21:03.148Z,90.8
2023-01-05T14:24:03.057Z,90.8
2023-01-05T14:27:03.036Z,90.8
2023-01-05T14:30:03.085Z,91.3
2023-01-05T14:33:03.061Z,91.3
2023-01-05T14:36:03.123Z,91.4
2023-01-05T14:39:03.052Z,91.4
2023-01-05T14:42:03.094Z,91.4
2023-01-05T14:45:03.107Z,91.4
2023-01-05T14:48:03.172Z,91.7
2023-01-05T14:51:02.988Z,91.7
2023-01-05T14:54:03.076Z,91.7
2023-01-05T14:57:05.434Z,91.7
2023-01-05T15:00:03.104Z,91.5
2023-01-05T15:03:03.111Z,91.5
2023-01-05T15:06:03.069Z,91.5
2023-01-05T15:09:03.075Z,91.5
2023-01-05T15:12:03.690Z,91.5
2023-01-05T15:15:03.102Z,91.5
2023-01-05T15:18:03.148Z,91.5
2023-01-05T15:21:03.126Z,90.1
2023-01-05T15:24:03.088Z,90.1
2023-01-05T15:27:02.995Z,90.5
2023-01-05T15:30:03.124Z,90.5
2023-01-05T15:33:03.033Z,90.5
2023-01-05T15:36:03.082Z,90.5
2023-01-05T15:39:03.060Z,90.5
2023-01-05T15:42:03.136Z,90.5
2023-01-05T15:45:03.082Z,91.1
2023-01-05T15:48:03.037Z,91.1
2023-01-05T15:51:03.054Z,91.1
2023-01-05T15:54:03.222Z,91.1
2023-01-05T15:57:03.118Z,91.1
2023-01-05T16:00:03.085Z,91.1
2023-01-05T16:03:03.065Z,91.1
2023-01-05T16:06:03.070Z,91.1
2023-01-05T16:09:03.004Z,91.1
2023-01-05T16:12:03.084Z,91.3
2023-01-05T16:15:03.053Z,91.3
2023-01-05T16:18:03.081Z,91
2023-01-05T16:21:03.065Z,91
2023-01-05T16:24:03.011Z,91
2023-01-05T16:27:03.039Z,91
2023-01-05T16:30:03.071Z,91
2023-01-05T16:33:03.013Z,91
2023-01-05T16:36:03.032Z,91
2023-01-05T16:39:03.064Z,91
2023-01-05T16:42:03.053Z,91
2023-01-05T16:45:03.023Z,91
2023-01-05T16:48:03.100Z,91
2023-01-05T16:51:03.018Z,91
2023-01-05T16:54:03.026Z,91
2023-01-05T16:57:02.998Z,91
2023-01-05T17:00:03.186Z,91.4
2023-01-05T17:03:03.120Z,91.4
2023-01-05T17:06:03.028Z,91.4
2023-01-05T17:09:03.066Z,91.4
2023-01-05T17:12:03.063Z,91.4
2023-01-05T17:15:03.060Z,91.4
2023-01-05T17:18:03.066Z,91.4
2023-01-05T17:21:03.001Z,91.4
2023-01-05T17:24:03.085Z,91.4
2023-01-05T17:27:03.032Z,91.4
2023-01-05T17:30:03.162Z,91.3
2023-01-05T17:33:03.066Z,91.3
2023-01-05T17:36:03.072Z,91.3
2023-01-05T17:39:03.057Z,91.3
2023-01-05T17:42:03.022Z,91.3
2023-01-05T17:45:03.122Z,91.3
2023-01-05T17:48:03.003Z,91.3
2023-01-05T17:51:02.986Z,91.3
2023-01-05T17:54:03.064Z,91.3
2023-01-05T17:57:03.033Z,91.3
2023-01-05T18:00:03.095Z,91.3
2023-01-05T18:03:03.017Z,91.3
2023-01-05T18:06:03.164Z,91.3
2023-01-05T18:09:03.075Z,91.4
2023-01-05T18:12:03.091Z,91.4
2023-01-05T18:15:02.984Z,91.4
2023-01-05T18:18:03.120Z,91.4
2023-01-05T18:21:03.054Z,91.4
2023-01-05T18:24:03.038Z,91.4
2023-01-05T18:27:02.997Z,91.4
2023-01-05T18:30:03.123Z,91.4
2023-01-05T18:33:03.077Z,91.4
2023-01-05T18:36:03.061Z,91.4
2023-01-05T18:39:03.058Z,91.4
2023-01-05T18:42:03.013Z,91.4
2023-01-05T18:45:31.828Z,91.4
2023-01-05T18:48:03.008Z,91.4
2023-01-05T18:51:03.059Z,91.4
2023-01-05T18:54:03.050Z,91.4
2023-01-05T18:57:03.121Z,91.4
2023-01-05T19:00:03.035Z,91.4
2023-01-05T19:03:03.063Z,91.2
2023-01-05T19:06:03.016Z,91.2
2023-01-05T19:09:03.040Z,91.2
2023-01-05T19:12:03.066Z,91.2
2023-01-05T19:15:03.101Z,91.2
2023-01-05T19:18:03.201Z,91.2
2023-01-05T19:21:02.998Z,91.2
2023-01-05T19:24:03.030Z,91.2
2023-01-05T19:27:03.008Z,91.2
2023-01-05T19:30:03.029Z,91.2
2023-01-05T19:33:03.100Z,91.2
2023-01-05T19:36:03.026Z,91.2
2023-01-05T19:39:03.025Z,91.2
2023-01-05T19:42:03.092Z,91.2
2023-01-05T19:45:03.018Z,91.2
2023-01-05T19:48:03.041Z,91.2
2023-01-05T19:51:03.013Z,91.2
2023-01-05T19:54:03.029Z,91.2
2023-01-05T19:57:03.034Z,91.2
2023-01-05T20:00:03.129Z,91.2
2023-01-05T20:03:03.292Z,91.2
2023-01-05T20:06:03.032Z,90.7
2023-01-05T20:09:03.081Z,90.7
2023-01-05T20:12:17.563Z,90.7
2023-01-05T20:15:03.027Z,90.7
2023-01-05T20:18:03.061Z,90.7
2023-01-05T20:21:03.018Z,90.7
2023-01-05T20:24:03.064Z,90.7
2023-01-05T20:27:03.021Z,90.7
2023-01-05T20:30:03.044Z,90.7
2023-01-05T20:33:03.057Z,90.7
2023-01-05T20:36:03.066Z,90.7
2023-01-05T20:39:03.036Z,90.7
2023-01-05T20:42:02.987Z,90.7
2023-01-05T20:45:03.037Z,90.7
2023-01-05T20:48:03.003Z,90.7
2023-01-05T20:51:03.092Z,90.7
2023-01-05T20:54:03.044Z,90.7
2023-01-05T20:57:03.023Z,90.7
2023-01-05T21:00:03.111Z,90.7
2023-01-05T21:03:03.231Z,90.2
2023-01-05T21:06:03.019Z,90.2
2023-01-05T21:09:03.141Z,90.2
2023-01-05T21:12:03.011Z,90.2
2023-01-05T21:15:03.110Z,90.2
2023-01-05T21:18:03.074Z,90.2
2023-01-05T21:21:03.088Z,90.2
2023-01-05T21:24:03.056Z,90.2
2023-01-05T21:27:03.047Z,90.2
2023-01-05T21:30:03.073Z,90.2
2023-01-05T21:33:03.001Z,90.2
2023-01-05T21:36:03.223Z,90.2
2023-01-05T21:39:06.309Z,90.2
2023-01-05T21:42:03.341Z,90.2
2023-01-05T21:45:03.220Z,90.2
2023-01-05T21:48:03.012Z,90.2
2023-01-05T21:51:03.012Z,90.2
2023-01-05T21:54:03.048Z,90.2
2023-01-05T21:57:03.227Z,90.2
2023-01-05T22:00:03.100Z,90.2
2023-01-05T22:03:03.123Z,91.3
2023-01-05T22:06:03.072Z,91.3
2023-01-05T22:09:03.023Z,91.3
2023-01-05T22:12:03.086Z,91.3
2023-01-05T22:15:03.146Z,91.3
2023-01-05T22:18:03.059Z,91.3
2023-01-05T22:21:03.043Z,91.3
2023-01-05T22:24:03.103Z,91.3
2023-01-05T22:27:03.048Z,91.3
2023-01-05T22:30:03.129Z,91.3
2023-01-05T22:33:03.045Z,91.3
2023-01-05T22:36:03.006Z,91.3
2023-01-05T22:39:03.123Z,91.3
2023-01-05T22:42:03.044Z,91.3
2023-01-05T22:45:03.070Z,91.3
2023-01-05T22:48:03.058Z,91.3
2023-01-05T22:51:03.727Z,91.3
2023-01-05T22:54:03.047Z,91.3
2023-01-05T22:57:03.082Z,91.3
2023-01-05T23:00:03.860Z,89.8
2023-01-05T23:03:03.085Z,89.8
2023-01-05T23:06:03.040Z,89.8
2023-01-05T23:09:03.109Z,89.8
2023-01-05T23:12:03.016Z,89.8
2023-01-05T23:15:03.056Z,89.8
2023-01-05T23:18:03.049Z,89.8
2023-01-05T23:21:05.023Z,89.8
2023-01-05T23:24:03.026Z,89.8
2023-01-05T23:27:03.041Z,89.8
2023-01-05T23:30:03.040Z,89.8
2023-01-05T23:33:03.042Z,89.8
2023-01-05T23:36:03.020Z,89.8
2023-01-05T23:39:03.017Z,89.8
2023-01-05T23:42:03.043Z,89.8
2023-01-05T23:45:02.999Z,89.7
2023-01-05T23:48:03.050Z,89.7
2023-01-05T23:51:03.029Z,89.7
2023-01-05T23:54:03.059Z,89.8
2023-01-05T23:57:03.045Z,89.8
